createdAt,value
2022-10-17T09:20:25.848Z,9532.00
2022-10-17T09:21:27.900Z,11644.00
2022-10-17T09:22:26.799Z,13584.00
2022-10-17T09:23:26.737Z,13776.00
2022-10-17T09:24:26.885Z,13104.00
2022-10-17T09:25:27.761Z,14464.00
2022-10-17T09:26:26.689Z,16768.00
2022-10-17T09:27:26.927Z,19104.00
2022-10-17T09:28:26.892Z,18144.00
2022-10-17T09:29:29.754Z,16736.00
2022-10-17T09:30:44.228Z,17088.00
2022-10-17T09:31:27.147Z,17920.00
2022-10-17T09:32:26.957Z,17952.00
2022-10-17T09:33:53.333Z,18336.00
2022-10-17T09:34:31.909Z,18016.00
2022-10-17T09:35:28.444Z,18528.00
2022-10-17T09:36:27.191Z,15824.00
2022-10-17T09:37:26.570Z,16040.00
2022-10-17T09:38:27.172Z,14896.00
2022-10-17T09:39:28.296Z,25792.00
2022-10-17T09:40:26.589Z,14632.00
2022-10-17T09:42:26.899Z,12544.00
2022-10-17T09:43:27.184Z,13888.00
2022-10-17T09:44:29.039Z,19104.00
2022-10-17T09:45:30.769Z,15804.00
2022-10-17T09:46:26.471Z,19328.00
2022-10-17T09:47:26.617Z,15384.00
2022-10-17T09:48:26.615Z,14264.00
2022-10-17T09:49:31.352Z,13608.00
2022-10-17T09:50:26.434Z,13672.00
2022-10-17T09:51:26.473Z,13480.00
2022-10-17T09:52:26.623Z,13092.00
2022-10-17T09:53:26.363Z,13300.00
2022-10-17T09:54:26.577Z,14156.00
2022-10-17T09:55:26.392Z,13940.00
2022-10-17T09:56:26.363Z,13344.00
2022-10-17T09:57:26.319Z,12828.00
2022-10-17T09:58:27.169Z,12576.00
2022-10-17T09:59:26.304Z,12080.00
2022-10-17T10:00:26.337Z,11412.00
2022-10-17T10:01:26.378Z,10968.00
2022-10-17T10:02:26.348Z,11124.00
2022-10-17T10:03:26.273Z,11428.00
2022-10-17T10:04:30.248Z,12208.00
2022-10-17T10:05:26.917Z,13088.00
2022-10-17T10:06:27.080Z,13920.00
2022-10-17T10:07:29.394Z,14500.00
2022-10-17T10:08:27.269Z,14888.00
2022-10-17T10:09:26.210Z,14872.00
2022-10-17T10:10:27.786Z,14688.00
2022-10-17T10:11:27.366Z,14892.00
2022-10-17T10:12:28.036Z,15628.00
2022-10-17T10:13:26.152Z,17376.00
2022-10-17T10:14:26.700Z,16372.00
2022-10-17T10:15:27.696Z,15528.00
2022-10-17T10:16:26.519Z,15332.00
2022-10-17T10:17:26.110Z,15924.00
2022-10-17T10:18:31.809Z,16456.00
2022-10-17T10:19:26.093Z,16276.00
2022-10-17T10:20:27.055Z,15412.00
2022-10-17T10:21:27.032Z,14272.00
2022-10-17T10:22:26.341Z,13008.00
2022-10-17T10:23:26.041Z,26880.00
2022-10-17T10:24:30.605Z,13720.00
2022-10-17T10:25:26.031Z,14284.00
2022-10-17T10:26:28.421Z,14432.00
2022-10-17T10:27:26.037Z,15636.00
2022-10-17T10:28:26.259Z,17056.00
2022-10-17T10:29:26.004Z,18304.00
2022-10-17T10:30:26.108Z,21984.00
2022-10-17T10:32:34.305Z,17952.00
2022-10-17T10:33:34.355Z,16420.00
2022-10-17T10:34:34.340Z,15540.00
2022-10-17T10:35:34.377Z,15236.00
2022-10-17T10:36:34.385Z,19680.00
2022-10-17T10:37:34.493Z,25760.00
2022-10-17T10:38:34.681Z,25216.00
2022-10-17T10:39:34.808Z,21376.00
2022-10-17T10:40:34.277Z,20672.00
2022-10-17T10:41:34.242Z,21120.00
2022-10-17T10:42:34.868Z,19776.00
2022-10-17T10:43:37.257Z,19680.00
2022-10-17T10:44:34.219Z,18784.00
2022-10-17T10:45:49.485Z,18080.00
2022-10-17T10:46:34.955Z,17664.00
2022-10-17T10:47:34.810Z,17248.00
2022-10-17T10:48:34.835Z,16524.00
2022-10-17T10:49:34.156Z,16000.00
2022-10-17T10:50:34.340Z,15340.00
2022-10-17T10:51:34.182Z,14744.00
2022-10-17T10:52:34.134Z,14116.00
2022-10-17T10:53:35.460Z,13172.00
2022-10-17T10:55:34.101Z,14100.00
2022-10-17T10:56:34.076Z,16504.00
2022-10-17T10:57:34.719Z,17792.00
2022-10-17T10:58:35.967Z,18944.00
2022-10-17T10:59:34.037Z,20256.00
2022-10-17T11:00:37.176Z,20000.00
2022-10-17T11:01:36.409Z,18752.00
2022-10-17T11:02:36.171Z,17664.00
2022-10-17T11:03:34.034Z,16700.00
2022-10-17T11:04:33.987Z,15680.00
2022-10-17T11:05:33.992Z,14496.00
2022-10-17T11:06:34.183Z,13768.00
2022-10-17T11:07:34.812Z,13964.00
2022-10-17T11:08:34.919Z,14436.00
2022-10-17T11:09:34.825Z,15208.00
2022-10-17T11:10:33.923Z,15928.00
2022-10-17T11:11:33.966Z,16408.00
2022-10-17T11:12:34.000Z,17504.00
2022-10-17T11:13:33.908Z,18016.00
2022-10-17T11:14:33.885Z,17120.00
2022-10-17T11:15:33.863Z,15144.00
2022-10-17T11:16:35.042Z,14216.00
2022-10-17T11:17:34.096Z,13636.00
2022-10-17T11:18:33.827Z,12968.00
2022-10-17T11:19:33.826Z,12844.00
2022-10-17T11:20:33.856Z,11608.00
2022-10-17T11:21:33.890Z,10544.00
2022-10-17T11:22:34.246Z,9508.00
2022-10-17T11:23:33.780Z,8748.00
2022-10-17T11:24:33.775Z,8416.00
2022-10-17T11:25:33.745Z,8700.00
2022-10-17T11:26:33.758Z,9112.00
2022-10-17T11:27:33.766Z,9996.00
2022-10-17T11:28:33.997Z,11608.00
2022-10-17T11:29:33.697Z,13152.00
2022-10-17T11:30:33.780Z,15404.00
2022-10-17T11:31:34.097Z,15172.00
2022-10-17T11:32:33.697Z,14252.00
2022-10-17T11:33:55.626Z,13244.00
2022-10-17T11:34:36.375Z,12880.00
2022-10-17T11:35:33.845Z,12396.00
2022-10-17T11:36:34.559Z,11792.00
2022-10-17T11:37:34.324Z,10860.00
2022-10-17T11:38:34.197Z,10420.00
2022-10-17T11:39:34.374Z,10492.00
2022-10-17T11:40:34.004Z,10676.00
2022-10-17T11:41:33.783Z,10832.00
2022-10-17T11:42:33.575Z,10884.00
2022-10-17T11:43:33.774Z,10576.00
2022-10-17T11:44:33.738Z,10344.00
2022-10-17T11:45:50.784Z,10020.00
2022-10-17T11:46:33.546Z,9484.00
2022-10-17T11:47:39.497Z,8092.00
2022-10-17T11:48:33.532Z,7032.00
2022-10-17T11:49:36.886Z,6960.00
2022-10-17T11:53:01.950Z,7724.00
2022-10-17T11:53:33.523Z,8352.00
2022-10-17T11:54:34.639Z,9160.00
2022-10-17T11:55:33.491Z,10016.00
2022-10-17T11:56:34.847Z,10748.00
2022-10-17T11:57:33.407Z,11312.00
2022-10-17T11:58:33.407Z,11876.00
2022-10-17T11:59:33.377Z,11708.00
2022-10-17T12:00:35.813Z,10904.00
2022-10-17T12:01:33.375Z,10192.00
2022-10-17T12:02:39.206Z,10200.00
2022-10-17T12:03:35.380Z,10448.00
2022-10-17T12:04:33.622Z,10684.00
2022-10-17T12:05:33.304Z,10692.00
2022-10-17T12:06:33.287Z,10816.00
2022-10-17T12:07:33.660Z,10816.00
2022-10-17T12:08:38.976Z,10992.00
2022-10-17T12:09:33.271Z,11076.00
2022-10-17T12:10:33.851Z,11484.00
2022-10-17T12:11:33.885Z,11740.00
2022-10-17T12:12:33.493Z,11444.00
2022-10-17T12:13:33.839Z,10824.00
2022-10-17T12:14:33.196Z,10224.00
2022-10-17T12:15:33.189Z,9908.00
2022-10-17T12:16:33.240Z,9400.00
2022-10-17T12:17:33.482Z,8792.00
2022-10-17T12:18:33.161Z,8180.00
2022-10-17T12:19:34.237Z,8088.00
2022-10-17T12:20:33.153Z,8348.00
2022-10-17T12:21:33.148Z,8460.00
2022-10-17T12:22:33.145Z,8576.00
2022-10-17T12:23:33.099Z,8548.00
2022-10-17T12:24:33.129Z,8572.00
2022-10-17T12:25:33.165Z,8496.00
2022-10-17T12:26:33.073Z,8240.00
2022-10-17T12:27:33.065Z,8400.00
2022-10-17T12:28:33.346Z,8964.00
2022-10-17T12:29:33.067Z,9364.00
2022-10-17T12:30:33.023Z,9716.00
2022-10-17T12:31:34.328Z,10204.00
2022-10-17T12:32:46.919Z,10488.00
2022-10-17T12:33:32.994Z,10560.00
2022-10-17T12:34:33.050Z,10444.00
2022-10-17T12:35:32.968Z,9916.00
2022-10-17T12:36:32.969Z,9520.00
2022-10-17T12:37:32.947Z,9844.00
2022-10-17T12:38:32.932Z,10748.00
2022-10-17T12:39:32.920Z,11748.00
2022-10-17T12:40:32.944Z,12536.00
2022-10-17T12:41:32.919Z,12912.00
2022-10-17T12:42:32.885Z,12636.00
2022-10-17T12:43:33.037Z,12128.00
2022-10-17T12:44:34.978Z,11628.00
2022-10-17T12:45:32.857Z,10932.00
2022-10-17T12:46:32.841Z,10428.00
2022-10-17T12:47:32.834Z,9856.00
2022-10-17T12:48:32.824Z,9392.00
2022-10-17T12:49:32.816Z,9260.00
2022-10-17T12:50:37.969Z,9724.00
2022-10-17T12:51:37.614Z,9860.00
2022-10-17T12:52:32.789Z,9604.00
2022-10-17T12:53:32.758Z,9088.00
2022-10-17T12:54:37.970Z,8672.00
2022-10-17T12:55:32.788Z,8296.00
2022-10-17T12:56:32.733Z,7852.00
2022-10-17T12:57:32.713Z,7400.00
2022-10-17T12:58:32.810Z,7004.00
2022-10-17T12:59:32.704Z,6680.00
2022-10-17T13:00:32.820Z,6524.00
2022-10-17T13:01:32.695Z,6524.00
2022-10-17T13:02:32.662Z,6416.00
2022-10-17T13:03:32.664Z,6140.00
2022-10-17T13:04:32.685Z,6296.00
2022-10-17T13:05:32.625Z,6980.00
2022-10-17T13:06:32.614Z,8056.00
2022-10-17T13:07:32.606Z,9768.00
2022-10-17T13:08:32.658Z,10796.00
2022-10-17T13:09:32.588Z,10516.00
2022-10-17T13:10:32.567Z,9564.00
2022-10-17T13:11:32.596Z,8104.00
2022-10-17T13:12:32.621Z,6868.00
2022-10-17T13:13:32.545Z,6280.00
2022-10-17T13:14:32.534Z,6148.00
2022-10-17T13:15:32.517Z,5964.00
2022-10-17T13:16:32.499Z,5680.00
2022-10-17T13:17:32.541Z,5384.00
2022-10-17T13:18:32.495Z,5056.00
2022-10-17T13:19:32.542Z,4636.00
2022-10-17T13:20:32.457Z,4244.00
2022-10-17T13:21:32.453Z,4048.00
2022-10-17T13:22:32.779Z,3776.00
2022-10-17T13:23:32.425Z,3416.00
2022-10-17T13:24:32.419Z,3112.00
2022-10-17T13:25:33.867Z,3020.00
2022-10-17T13:26:32.441Z,3112.00
2022-10-17T13:27:32.406Z,3184.00
2022-10-17T13:28:33.885Z,3220.00
2022-10-17T13:29:32.365Z,3408.00
2022-10-17T13:30:32.630Z,3488.00
2022-10-17T13:31:32.335Z,3692.00
2022-10-17T13:32:32.687Z,3860.00
2022-10-17T13:33:32.341Z,4036.00
2022-10-17T13:34:32.322Z,4164.00
2022-10-17T13:36:32.293Z,4288.00
2022-10-17T13:37:32.282Z,4388.00
2022-10-17T13:38:32.272Z,4176.00
2022-10-17T13:39:45.617Z,3476.00
2022-10-17T13:40:49.218Z,3008.00
2022-10-17T13:41:36.836Z,2904.00
2022-10-17T13:42:32.615Z,2908.00
2022-10-17T13:43:32.199Z,2800.00
2022-10-17T13:44:32.224Z,2908.00
2022-10-17T13:45:32.187Z,2832.00
2022-10-17T13:46:39.815Z,2780.00
2022-10-17T13:47:32.163Z,2952.00
2022-10-17T13:48:32.150Z,2812.00
2022-10-17T13:49:32.368Z,2552.00
2022-10-17T13:50:44.168Z,2568.00
2022-10-17T13:51:32.148Z,2396.00
2022-10-17T13:52:32.480Z,2640.00
2022-10-17T13:53:32.093Z,2848.00
2022-10-17T13:54:32.075Z,3120.00
2022-10-17T13:55:32.063Z,2944.00
2022-10-17T13:56:32.077Z,3216.00
2022-10-17T13:57:32.428Z,3480.00
2022-10-17T13:58:32.047Z,3584.00
2022-10-17T13:59:32.041Z,3556.00
2022-10-17T14:00:32.068Z,3576.00
2022-10-17T14:01:32.004Z,3720.00
2022-10-17T14:02:32.007Z,3700.00
2022-10-17T14:03:47.643Z,3524.00
2022-10-17T14:04:44.712Z,3548.00
2022-10-17T14:05:31.975Z,3788.00
2022-10-17T14:06:31.941Z,4036.00
2022-10-17T14:07:46.246Z,3880.00
2022-10-17T14:08:31.983Z,3712.00
2022-10-17T14:09:31.924Z,3620.00
2022-10-17T14:10:31.901Z,3660.00
2022-10-17T14:11:31.890Z,3712.00
2022-10-17T14:12:31.881Z,3744.00
2022-10-17T14:13:31.867Z,3712.00
2022-10-17T14:14:46.064Z,3604.00
2022-10-17T14:15:31.855Z,3532.00
2022-10-17T14:16:31.833Z,3544.00
2022-10-17T14:17:32.455Z,3560.00
2022-10-17T14:18:35.912Z,3560.00
2022-10-17T14:19:31.810Z,3520.00
2022-10-17T14:21:12.741Z,3540.00
2022-10-17T14:21:43.787Z,3628.00
2022-10-17T14:22:31.773Z,3740.00
2022-10-17T14:23:31.769Z,3788.00
2022-10-17T14:24:31.769Z,3772.00
2022-10-17T14:25:31.745Z,3756.00
2022-10-17T14:26:31.726Z,3756.00
2022-10-17T14:27:32.164Z,3676.00
2022-10-17T14:28:31.799Z,3500.00
2022-10-17T14:29:31.686Z,3448.00
2022-10-17T14:30:55.301Z,3496.00
2022-10-17T14:31:31.680Z,3556.00
2022-10-17T14:32:31.659Z,3636.00
2022-10-17T14:33:31.647Z,3768.00
2022-10-17T14:34:31.659Z,3884.00
2022-10-17T14:35:41.605Z,3892.00
2022-10-17T14:36:31.619Z,3864.00
2022-10-17T14:37:31.916Z,3804.00
2022-10-17T14:38:31.593Z,3720.00
2022-10-17T14:39:31.576Z,3696.00
2022-10-17T14:43:37.231Z,3592.00
2022-10-17T14:44:39.215Z,3468.00
2022-10-17T14:45:38.186Z,3320.00
2022-10-17T14:46:39.176Z,3240.00
2022-10-17T14:47:43.668Z,3084.00
2022-10-17T14:48:38.703Z,3036.00
2022-10-17T14:49:38.147Z,3128.00
2022-10-17T14:50:38.715Z,3328.00
2022-10-17T14:51:50.341Z,3504.00
2022-10-17T14:52:38.114Z,3448.00
2022-10-17T14:53:38.120Z,3344.00
2022-10-17T14:54:38.083Z,3244.00
2022-10-17T14:55:38.071Z,3088.00
2022-10-17T14:56:38.056Z,2984.00
2022-10-17T14:57:38.054Z,2880.00
2022-10-17T14:58:38.117Z,2780.00
2022-10-17T14:59:53.302Z,2652.00
2022-10-17T15:00:38.062Z,2532.00
2022-10-17T15:01:38.049Z,2448.00
2022-10-17T15:02:38.001Z,2376.00
2022-10-17T15:03:38.042Z,2296.00
2022-10-17T15:04:37.973Z,2216.00
2022-10-17T15:05:38.686Z,2112.00
2022-10-17T15:06:37.955Z,2016.00
2022-10-17T15:07:37.967Z,2008.00
2022-10-17T15:08:38.005Z,2096.00
2022-10-17T15:09:37.942Z,2164.00
2022-10-17T15:10:37.908Z,2160.00
2022-10-17T15:11:38.719Z,2144.00
2022-10-17T15:12:41.391Z,2128.00
2022-10-17T15:13:42.202Z,2128.00
2022-10-17T15:14:37.873Z,2092.00
2022-10-17T15:15:38.692Z,2092.00
2022-10-17T15:16:37.849Z,2072.00
2022-10-17T15:17:37.925Z,2048.00
2022-10-17T15:18:37.817Z,1960.00
2022-10-17T15:19:37.848Z,1828.00
2022-10-17T15:20:38.707Z,1652.00
2022-10-17T15:21:40.799Z,1592.00
2022-10-17T15:22:38.711Z,1660.00
2022-10-17T15:23:37.816Z,1704.00
2022-10-17T15:24:38.726Z,1712.00
2022-10-17T15:25:37.787Z,1668.00
2022-10-17T15:26:37.729Z,1628.00
2022-10-17T15:27:38.713Z,1620.00
2022-10-17T15:28:37.840Z,1624.00
2022-10-17T15:29:37.778Z,1620.00
2022-10-17T15:30:37.708Z,1660.00
2022-10-17T15:31:38.199Z,1724.00
2022-10-17T15:32:44.215Z,1792.00
2022-10-17T15:33:37.669Z,1812.00
2022-10-17T15:34:37.646Z,1804.00
2022-10-17T15:35:37.701Z,1792.00
2022-10-17T15:36:37.635Z,1784.00
2022-10-17T15:37:37.642Z,1740.00
2022-10-17T15:38:37.596Z,1664.00
2022-10-17T15:39:38.235Z,1568.00
2022-10-17T15:40:37.581Z,1444.00
2022-10-17T15:41:45.071Z,1348.00
2022-10-17T15:42:37.582Z,1272.00
2022-10-17T15:43:37.555Z,1220.00
2022-10-17T15:44:37.554Z,1200.00
2022-10-17T15:45:37.537Z,1176.00
2022-10-17T15:46:38.262Z,1152.00
2022-10-17T15:47:38.258Z,1132.00
2022-10-17T15:48:38.260Z,1140.00
2022-10-17T15:49:37.493Z,1136.00
2022-10-17T15:50:38.253Z,1124.00
2022-10-17T15:51:37.473Z,1084.00
2022-10-17T15:52:37.451Z,1016.00
2022-10-17T15:53:37.699Z,936.00
2022-10-17T15:54:37.430Z,844.00
2022-10-17T15:55:37.419Z,756.00
2022-10-17T15:56:37.412Z,688.00
2022-10-17T15:57:37.394Z,644.00
2022-10-17T15:58:37.403Z,620.00
2022-10-17T15:59:37.377Z,576.00
2022-10-17T16:00:38.350Z,528.00
2022-10-17T16:01:40.728Z,480.00
2022-10-17T16:02:37.352Z,444.00
2022-10-17T16:03:37.339Z,408.00
2022-10-17T16:04:37.328Z,372.00
2022-10-17T16:05:37.327Z,332.00
2022-10-17T16:06:37.297Z,308.00
2022-10-17T16:07:37.283Z,288.00
2022-10-17T16:08:37.324Z,268.00
2022-10-17T16:09:37.310Z,244.00
2022-10-17T16:10:37.793Z,216.00
2022-10-17T16:11:37.252Z,204.00
2022-10-17T16:12:37.785Z,200.00
2022-10-17T16:13:37.231Z,180.00
2022-10-17T16:14:37.232Z,168.00
2022-10-17T16:15:37.224Z,164.00
2022-10-17T16:16:37.776Z,156.00
2022-10-17T16:17:37.207Z,144.00
2022-10-17T16:18:37.189Z,136.00
2022-10-17T16:19:37.766Z,128.00
2022-10-17T16:20:37.145Z,124.00
2022-10-17T16:21:43.657Z,124.00
2022-10-17T16:22:37.143Z,120.00
2022-10-17T16:23:37.135Z,120.00
2022-10-17T16:24:37.818Z,116.00
2022-10-17T16:25:37.119Z,116.00
2022-10-17T16:26:37.799Z,112.00
2022-10-17T16:27:37.090Z,108.00
2022-10-17T16:28:37.093Z,104.00
2022-10-17T16:29:37.065Z,100.00
2022-10-17T16:30:37.090Z,92.00
2022-10-17T16:31:37.058Z,88.00
2022-10-17T16:32:37.002Z,84.00
2022-10-17T16:33:36.997Z,80.00
2022-10-17T16:34:37.820Z,72.00
2022-10-17T16:35:37.712Z,64.00
2022-10-17T16:36:36.980Z,60.00
2022-10-17T16:37:37.829Z,60.00
2022-10-17T16:38:37.801Z,52.00
2022-10-17T16:39:36.930Z,48.00
2022-10-17T16:40:36.905Z,44.00
2022-10-17T16:41:43.956Z,40.00
2022-10-17T16:42:36.876Z,32.00
2022-10-17T16:43:37.835Z,28.00
2022-10-17T16:44:36.890Z,24.00
2022-10-17T16:45:36.854Z,24.00
2022-10-17T16:46:37.817Z,16.00
2022-10-17T16:47:37.829Z,16.00
2022-10-17T16:48:36.847Z,12.00
2022-10-17T16:49:40.353Z,12.00
2022-10-17T16:50:37.317Z,8.00
2022-10-17T16:51:37.326Z,8.00
2022-10-17T16:52:37.305Z,8.00
2022-10-17T16:53:37.317Z,4.00
2022-10-17T16:54:36.768Z,4.00
2022-10-17T16:55:37.347Z,4.00
2022-10-17T16:56:36.737Z,4.00
2022-10-17T16:57:36.756Z,4.00
2022-10-17T16:58:36.750Z,0.00
2022-10-17T16:59:37.338Z,0.00
2022-10-17T17:00:36.742Z,0.00
2022-10-17T17:01:43.246Z,0.00
2022-10-17T17:02:39.380Z,0.00
2022-10-17T17:03:36.644Z,0.00
2022-10-17T17:04:39.350Z,0.00
2022-10-17T17:05:37.350Z,0.00
2022-10-17T17:06:36.655Z,0.00
2022-10-17T17:07:39.354Z,0.00
2022-10-17T17:08:36.603Z,0.00
2022-10-17T17:09:36.587Z,0.00
2022-10-17T17:10:36.572Z,0.00
2022-10-17T17:11:36.570Z,0.00
2022-10-17T17:12:36.550Z,0.00
2022-10-17T17:13:39.343Z,0.00
2022-10-17T17:14:39.356Z,0.00
2022-10-17T17:15:37.433Z,0.00
2022-10-17T17:16:39.354Z,0.00
2022-10-17T17:17:49.554Z,0.00
2022-10-17T17:18:37.363Z,0.00
2022-10-17T17:19:39.353Z,0.00
2022-10-17T17:20:36.460Z,0.00
2022-10-17T17:21:44.232Z,0.00
2022-10-17T17:22:37.388Z,0.00
2022-10-17T17:23:36.437Z,0.00
2022-10-17T17:24:36.517Z,0.00
2022-10-17T17:25:36.409Z,0.00
2022-10-17T17:26:37.394Z,0.00
2022-10-17T17:27:36.385Z,0.00
2022-10-17T17:28:36.403Z,0.00
2022-10-17T17:29:36.882Z,0.00
2022-10-17T17:30:36.878Z,0.00
2022-10-17T17:31:36.403Z,0.00
2022-10-17T17:32:36.382Z,0.00
2022-10-17T17:33:39.362Z,0.00
2022-10-17T17:34:36.925Z,0.00
2022-10-17T17:35:36.293Z,0.00
2022-10-17T17:36:36.304Z,0.00
2022-10-17T17:37:36.277Z,0.00
2022-10-17T17:38:36.303Z,0.00
2022-10-17T17:39:36.879Z,0.00
2022-10-17T17:40:36.255Z,0.00
2022-10-17T17:41:42.792Z,0.00
2022-10-17T17:42:36.942Z,0.00
2022-10-17T17:43:36.215Z,0.00
2022-10-17T17:44:36.910Z,0.00
2022-10-17T17:45:36.930Z,0.00
2022-10-17T17:46:36.933Z,0.00
2022-10-17T17:47:36.911Z,0.00
2022-10-17T17:48:36.914Z,0.00
2022-10-17T17:49:36.156Z,0.00
2022-10-17T17:50:36.927Z,0.00
2022-10-17T17:51:36.944Z,0.00
2022-10-17T17:52:36.159Z,0.00
2022-10-17T17:53:36.100Z,0.00
2022-10-17T17:54:40.049Z,0.00
2022-10-17T17:55:36.930Z,0.00
2022-10-17T17:56:36.076Z,0.00
2022-10-17T17:57:36.931Z,0.00
2022-10-17T17:58:36.918Z,0.00
2022-10-17T17:59:36.915Z,0.00
2022-10-17T18:00:36.923Z,0.00
2022-10-17T18:01:42.572Z,0.00
2022-10-17T18:02:39.621Z,0.00
2022-10-17T18:03:36.943Z,0.00
2022-10-17T18:04:35.974Z,0.00
2022-10-17T18:05:36.974Z,0.00
2022-10-17T18:06:36.945Z,0.00
2022-10-17T18:07:36.443Z,0.00
2022-10-17T18:08:36.451Z,0.00
2022-10-17T18:09:35.943Z,0.00
2022-10-17T18:10:36.450Z,0.00
2022-10-17T18:11:36.458Z,0.00
2022-10-17T18:12:36.457Z,0.00
2022-10-17T18:13:35.879Z,0.00
2022-10-17T18:14:36.460Z,0.00
2022-10-17T18:15:35.885Z,0.00
2022-10-17T18:16:36.464Z,0.00
2022-10-17T18:17:35.879Z,0.00
2022-10-17T18:18:36.464Z,0.00
2022-10-17T18:19:35.846Z,0.00
2022-10-17T18:20:36.461Z,0.00
2022-10-17T18:21:35.799Z,0.00
2022-10-17T18:22:36.494Z,0.00
2022-10-17T18:23:35.807Z,0.00
2022-10-17T18:24:36.461Z,0.00
2022-10-17T18:25:36.479Z,0.00
2022-10-17T18:26:36.457Z,0.00
2022-10-17T18:27:35.739Z,0.00
2022-10-17T18:28:36.558Z,0.00
2022-10-17T18:29:35.706Z,0.00
2022-10-17T18:30:35.693Z,0.00
2022-10-17T18:31:36.293Z,0.00
2022-10-17T18:32:35.692Z,0.00
2022-10-17T18:33:35.722Z,0.00
2022-10-17T18:34:35.663Z,0.00
2022-10-17T18:35:35.647Z,0.00
2022-10-17T18:36:35.660Z,0.00
2022-10-17T18:37:35.665Z,0.00
2022-10-17T18:38:35.603Z,0.00
2022-10-17T18:39:35.593Z,0.00
2022-10-17T18:40:35.576Z,0.00
2022-10-17T18:41:35.589Z,0.00
2022-10-17T18:42:35.578Z,0.00
2022-10-17T18:43:35.602Z,0.00
2022-10-17T18:44:35.553Z,0.00
2022-10-17T18:45:35.544Z,0.00
2022-10-17T18:46:35.680Z,0.00
2022-10-17T18:47:35.522Z,0.00
2022-10-17T18:48:35.492Z,0.00
2022-10-17T18:49:35.480Z,0.00
2022-10-17T18:50:35.968Z,0.00
2022-10-17T18:51:35.473Z,0.00
2022-10-17T18:52:35.445Z,0.00
2022-10-17T18:53:35.483Z,0.00
2022-10-17T18:54:35.428Z,0.00
2022-10-17T18:55:35.455Z,0.00
2022-10-17T18:56:35.432Z,0.00
2022-10-17T18:57:35.441Z,0.00
2022-10-17T18:58:35.395Z,0.00
2022-10-17T18:59:35.434Z,0.00
2022-10-17T19:00:35.383Z,0.00
2022-10-17T19:01:35.411Z,0.00
2022-10-17T19:02:37.272Z,0.00
2022-10-17T19:03:35.331Z,0.00
2022-10-17T19:04:35.367Z,0.00
2022-10-17T19:05:35.306Z,0.00
2022-10-17T19:06:35.292Z,0.00
2022-10-17T19:07:35.305Z,0.00
2022-10-17T19:08:35.281Z,0.00
2022-10-17T19:09:35.261Z,0.00
2022-10-17T19:10:35.262Z,0.00
2022-10-17T19:11:35.236Z,0.00
2022-10-17T19:12:35.235Z,0.00
2022-10-17T19:13:35.388Z,0.00
2022-10-17T19:14:35.233Z,0.00
2022-10-17T19:15:35.207Z,0.00
2022-10-17T19:16:35.204Z,0.00
2022-10-17T19:17:35.200Z,0.00
2022-10-17T19:18:35.182Z,0.00
2022-10-17T19:19:35.837Z,0.00
2022-10-17T19:20:35.164Z,0.00
2022-10-17T19:21:35.320Z,0.00
2022-10-17T19:22:35.130Z,0.00
2022-10-17T19:23:35.128Z,0.00
2022-10-17T19:24:35.100Z,0.00
2022-10-17T19:25:35.099Z,0.00
2022-10-17T19:26:35.101Z,0.00
2022-10-17T19:27:35.054Z,0.00
2022-10-17T19:28:35.132Z,0.00
2022-10-17T19:29:35.252Z,0.00
2022-10-17T19:30:35.031Z,0.00
2022-10-17T19:31:35.990Z,0.00
2022-10-17T19:32:35.008Z,0.00
2022-10-17T19:33:35.011Z,0.00
2022-10-17T19:34:34.998Z,0.00
2022-10-17T19:35:35.085Z,0.00
2022-10-17T19:36:34.958Z,0.00
2022-10-17T19:37:34.948Z,0.00
2022-10-17T19:38:34.956Z,0.00
2022-10-17T19:39:34.927Z,0.00
2022-10-17T19:40:34.963Z,0.00
2022-10-17T19:41:34.905Z,0.00
2022-10-17T19:42:34.944Z,0.00
2022-10-17T19:43:34.892Z,0.00
2022-10-17T19:44:34.891Z,0.00
2022-10-17T19:45:34.869Z,0.00
2022-10-17T19:46:34.904Z,0.00
2022-10-17T19:47:34.865Z,0.00
2022-10-17T19:48:34.837Z,0.00
2022-10-17T19:49:34.847Z,0.00
2022-10-17T19:50:36.688Z,0.00
2022-10-17T19:51:34.856Z,0.00
2022-10-17T19:52:34.785Z,0.00
2022-10-17T19:53:34.798Z,0.00
2022-10-17T19:54:34.789Z,0.00
2022-10-17T19:55:34.731Z,0.00
2022-10-17T19:56:34.750Z,0.00
2022-10-17T19:57:34.725Z,0.00
2022-10-17T19:58:34.715Z,0.00
2022-10-17T19:59:34.727Z,0.00
2022-10-17T20:00:34.705Z,0.00
2022-10-17T20:01:34.768Z,0.00
2022-10-17T20:02:34.664Z,0.00
2022-10-17T20:03:34.657Z,0.00
2022-10-17T20:04:34.657Z,0.00
2022-10-17T20:05:34.661Z,0.00
2022-10-17T20:06:34.695Z,0.00
2022-10-17T20:07:34.608Z,0.00
2022-10-17T20:08:34.591Z,0.00
2022-10-17T20:09:34.606Z,0.00
2022-10-17T20:10:34.587Z,0.00
2022-10-17T20:11:41.094Z,0.00
2022-10-17T20:12:34.565Z,0.00
2022-10-17T20:13:34.543Z,0.00
2022-10-17T20:14:38.688Z,0.00
2022-10-17T20:15:34.518Z,0.00
2022-10-17T20:16:34.536Z,0.00
2022-10-17T20:18:34.501Z,0.00
2022-10-17T20:19:34.482Z,0.00
2022-10-17T20:20:34.465Z,0.00
2022-10-17T20:21:34.457Z,0.00
2022-10-17T20:22:34.455Z,0.00
2022-10-17T20:23:34.421Z,0.00
2022-10-17T20:24:34.418Z,0.00
2022-10-17T20:25:34.436Z,0.00
2022-10-17T20:26:39.056Z,0.00
2022-10-17T20:27:34.393Z,0.00
2022-10-17T20:28:34.385Z,0.00
2022-10-17T20:29:34.363Z,0.00
2022-10-17T20:30:34.350Z,0.00
2022-10-17T20:31:34.346Z,0.00
2022-10-17T20:32:34.333Z,0.00
2022-10-17T20:33:34.316Z,0.00
2022-10-17T20:34:34.307Z,0.00
2022-10-17T20:35:34.328Z,0.00
2022-10-17T20:36:34.311Z,0.00
2022-10-17T20:37:36.427Z,0.00
2022-10-17T20:38:34.255Z,0.00
2022-10-17T20:39:34.275Z,0.00
2022-10-17T20:40:35.615Z,0.00
2022-10-17T20:41:34.241Z,0.00
2022-10-17T20:42:34.224Z,0.00
2022-10-17T20:43:34.202Z,0.00
2022-10-17T20:44:34.259Z,0.00
2022-10-17T20:45:50.323Z,0.00
2022-10-17T20:46:39.756Z,0.00
2022-10-17T20:47:45.866Z,0.00
2022-10-17T20:48:34.177Z,0.00
2022-10-17T20:49:34.149Z,0.00
2022-10-17T20:50:34.132Z,0.00
2022-10-17T20:51:40.630Z,0.00
2022-10-17T20:52:34.109Z,0.00
2022-10-17T20:53:37.815Z,0.00
2022-10-17T20:54:34.100Z,0.00
2022-10-17T20:55:34.071Z,0.00
2022-10-17T20:56:34.058Z,0.00
2022-10-17T20:57:34.047Z,0.00
2022-10-17T20:58:34.044Z,0.00
2022-10-17T20:59:34.103Z,0.00
2022-10-17T21:00:34.049Z,0.00
2022-10-17T21:01:34.066Z,0.00
2022-10-17T21:02:33.985Z,0.00
2022-10-17T21:03:33.976Z,0.00
2022-10-17T21:04:45.942Z,0.00
2022-10-17T21:05:33.991Z,0.00
2022-10-17T21:06:33.941Z,0.00
2022-10-17T21:07:33.928Z,0.00
2022-10-17T21:08:33.959Z,0.00
2022-10-17T21:09:33.913Z,0.00
2022-10-17T21:10:35.799Z,0.00
2022-10-17T21:11:40.440Z,0.00
2022-10-17T21:12:50.037Z,0.00
2022-10-17T21:13:33.879Z,0.00
2022-10-17T21:14:33.868Z,0.00
2022-10-17T21:15:33.844Z,0.00
2022-10-17T21:16:33.839Z,0.00
2022-10-17T21:17:33.857Z,0.00
2022-10-17T21:18:33.808Z,0.00
2022-10-17T21:19:33.808Z,0.00
2022-10-17T21:20:33.789Z,0.00
2022-10-17T21:21:33.779Z,0.00
2022-10-17T21:22:33.792Z,0.00
2022-10-17T21:23:33.748Z,0.00
2022-10-17T21:24:33.752Z,0.00
2022-10-17T21:25:33.740Z,0.00
2022-10-17T21:26:33.714Z,0.00
2022-10-17T21:27:33.750Z,0.00
2022-10-17T21:28:33.769Z,0.00
2022-10-17T21:29:33.689Z,0.00
2022-10-17T21:30:33.700Z,0.00
2022-10-17T21:31:33.670Z,0.00
2022-10-17T21:32:51.189Z,0.00
2022-10-17T21:33:33.644Z,0.00
2022-10-17T21:34:33.672Z,0.00
2022-10-17T21:35:33.653Z,0.00
2022-10-17T21:36:33.609Z,0.00
2022-10-17T21:37:33.610Z,0.00
2022-10-17T21:38:33.616Z,0.00
2022-10-17T21:39:33.622Z,0.00
2022-10-17T21:40:33.578Z,0.00
2022-10-17T21:41:33.545Z,0.00
2022-10-17T21:42:33.757Z,0.00
2022-10-17T21:43:33.542Z,0.00
2022-10-17T21:44:33.525Z,0.00
2022-10-17T21:45:33.520Z,0.00
2022-10-17T21:46:33.516Z,0.00
2022-10-17T21:47:36.233Z,0.00
2022-10-17T21:48:33.488Z,0.00
2022-10-17T21:49:33.475Z,0.00
2022-10-17T21:50:33.470Z,0.00
2022-10-17T21:51:33.477Z,0.00
2022-10-17T21:52:33.614Z,0.00
2022-10-17T21:53:33.428Z,0.00
2022-10-17T21:54:33.405Z,0.00
2022-10-17T21:55:33.434Z,0.00
2022-10-17T21:56:33.409Z,0.00
2022-10-17T21:57:33.377Z,0.00
2022-10-17T21:58:33.381Z,0.00
2022-10-17T21:59:33.353Z,0.00
2022-10-17T22:00:33.375Z,0.00
2022-10-17T22:01:33.430Z,0.00